首页
METAR-TAF:

METAR-TAF

机场 :

桂林兩江國際機場

桂林, 中华人民共和国

纬度: 25-20N, 经度: 110-18E, 海拔: 166米

当前天气观测

该预报发布于21分钟前的07:00 UTC
风速2节,风向多变
温度 14°C
湿度 63%
气压 1019 hPa
能見度: 6000
散云层高于3000英尺
阴天层高于4300英尺

METAR: ZGKL 240700Z VRB01MPS 6000 SCT030 OVC043 14/07 Q1019 NOSIG

时间: 15:21 (07:21 UTC)

预报

该预报发布于4小时和8分钟前的03:13 UTC
预报有效从24日的 06点(UTC)到 25日的 06点(UTC)
风速6节,风向东北
能見度: 5000
散云层高于3000英尺
阴天层高于4000英尺
轻雾
成为
从 24日的 15点(UTC)到 24日的 16点(UTC)
能見度: 2800
小雨, 轻雾
成为
从 25日的 01点(UTC)到 25日的 02点(UTC)
能見度: 3500

TAF: ZGKL 240313Z 2406/2506 05003MPS 5000 BR SCT030 OVC040 TX14/2407Z TN10/2422Z BECMG 2415/2416 2800 -RA BR BECMG 2501/2502 3500

超过4000个机场的气象观测和天气预报(METAR&TAF报告)。

可查询的气象台以黄色和红色小点在地图上表示。

将鼠标移到小点上方,可查看气象台名称。

然后点击查看天气观测和预报。

如需切换地图:点击带黑十字的绿色按钮放大地图;点击带横线的绿色按钮缩小地图;或者点击绿色箭头查看邻近地区的地图。


METAR-TAF: